Time;durP1;ratioP1;P1;durP2;ratioP2;P2;SDS_P1;SDS_P2;PMS_P1;PMS_P2;Temp;Humidity;BMP_temperature;BMP_pressure;BME280_temperature;BME280_humidity;BME280_pressure;Samples;Min_cycle;Max_cycle;Signal;HPM_P1;HPM_P2
2023/03/05 00:01:44;;;;;;;6.13;0.60;;;2.70;99.90;;;;;;5045693;28;20049;-40
2023/03/05 00:04:13;;;;;;;6.97;0.60;;;2.60;99.90;;;;;;5046071;28;20098;-40
2023/03/05 00:06:39;;;;;;;3.75;0.70;;;2.70;99.90;;;;;;5045584;28;20107;-40
2023/03/05 00:09:05;;;;;;;9.05;0.80;;;2.70;99.90;;;;;;5045205;28;20037;-40
2023/03/05 00:11:32;;;;;;;4.38;0.50;;;2.70;99.90;;;;;;5045878;28;20044;-39
2023/03/05 00:13:59;;;;;;;8.70;0.80;;;3.60;99.90;;;;;;5046147;28;20049;-40
2023/03/05 00:16:27;;;;;;;6.32;0.50;;;2.70;99.90;;;;;;5046232;28;20081;-40
2023/03/05 00:18:54;;;;;;;5.75;0.55;;;2.70;99.90;;;;;;5046160;28;20053;-39
2023/03/05 00:21:23;;;;;;;5.82;0.50;;;2.60;99.90;;;;;;5046507;28;20045;-40
2023/03/05 00:23:50;;;;;;;4.60;0.60;;;2.60;99.90;;;;;;5044443;28;20037;-40
2023/03/05 00:26:17;;;;;;;5.65;0.88;;;2.60;99.90;;;;;;5045772;28;20033;-40
2023/03/05 00:28:43;;;;;;;4.95;0.45;;;2.50;99.90;;;;;;5044403;28;20063;-40
2023/03/05 00:31:09;;;;;;;6.18;0.30;;;2.50;99.90;;;;;;5045761;28;20049;-40
2023/03/05 00:33:34;;;;;;;3.00;0.28;;;2.40;99.90;;;;;;5045828;28;20115;-39
2023/03/05 00:36:05;;;;;;;4.55;0.40;;;2.40;99.90;;;;;;5045948;28;20067;-40
2023/03/05 00:38:32;;;;;;;3.45;0.57;;;2.30;99.90;;;;;;5045346;28;20045;-39
2023/03/05 00:40:57;;;;;;;6.30;0.50;;;2.40;99.90;;;;;;5045369;28;20043;-40
2023/03/05 00:43:23;;;;;;;4.05;0.35;;;2.40;99.90;;;;;;5045803;28;20037;-40
2023/03/05 00:45:48;;;;;;;3.10;0.30;;;2.40;99.90;;;;;;5045955;28;20090;-40
2023/03/05 00:48:14;;;;;;;4.47;0.50;;;2.40;99.90;;;;;;5045594;28;20052;-40
2023/03/05 00:50:40;;;;;;;7.57;0.50;;;2.40;99.90;;;;;;5045331;28;20049;-40
2023/03/05 00:53:05;;;;;;;5.18;0.47;;;2.40;99.90;;;;;;5045664;28;20052;-40
2023/03/05 00:55:31;;;;;;;4.65;0.45;;;2.20;99.90;;;;;;5043901;28;20442;-39
2023/03/05 00:57:57;;;;;;;4.43;0.43;;;2.40;99.90;;;;;;5044823;28;20051;-40
2023/03/05 01:00:22;;;;;;;5.07;1.02;;;2.30;99.90;;;;;;5045535;28;20053;-39
2023/03/05 01:02:48;;;;;;;5.70;0.50;;;2.50;99.90;;;;;;5045158;28;20060;-40
2023/03/05 01:05:14;;;;;;;5.13;0.52;;;2.40;99.90;;;;;;5045203;28;20056;-40
2023/03/05 01:07:40;;;;;;;6.43;0.50;;;2.40;99.90;;;;;;5045278;28;20148;-40
2023/03/05 01:10:07;;;;;;;11.00;0.65;;;2.70;99.90;;;;;;5045330;28;20167;-40
2023/03/05 01:12:33;;;;;;;10.38;0.60;;;2.30;99.90;;;;;;5045232;28;20041;-39
2023/03/05 01:14:58;;;;;;;4.20;0.40;;;2.50;99.90;;;;;;5044894;28;20356;-40
2023/03/05 01:17:24;;;;;;;9.63;1.23;;;2.50;99.90;;;;;;5045395;28;20083;-40
2023/03/05 01:19:49;;;;;;;4.63;0.70;;;2.50;99.90;;;;;;5045839;28;20049;-39
2023/03/05 01:22:15;;;;;;;3.85;0.57;;;2.40;99.90;;;;;;5049363;28;20041;-40
2023/03/05 01:24:41;;;;;;;5.03;0.40;;;2.60;99.90;;;;;;5048169;28;20044;-40
2023/03/05 01:27:06;;;;;;;4.93;0.52;;;2.50;99.90;;;;;;5049130;28;20084;-40
2023/03/05 01:29:32;;;;;;;4.70;0.40;;;2.50;99.90;;;;;;5049379;28;20064;-39
2023/03/05 01:31:58;;;;;;;4.20;0.30;;;2.50;99.90;;;;;;5049273;28;20045;-39
2023/03/05 01:34:23;;;;;;;2.97;0.30;;;2.50;99.90;;;;;;5048603;28;20444;-40
2023/03/05 01:36:49;;;;;;;3.83;0.20;;;2.40;99.90;;;;;;5049103;28;20041;-40
2023/03/05 01:39:16;;;;;;;4.72;0.40;;;2.50;99.90;;;;;;5048634;28;20051;-39
2023/03/05 01:41:42;;;;;;;6.68;0.73;;;2.50;99.90;;;;;;5049279;28;20122;-40
2023/03/05 01:44:24;;;;;;;3.65;0.35;;;2.50;99.90;;;;;;5048690;28;20049;-40
2023/03/05 01:46:50;;;;;;;5.22;0.40;;;2.40;99.90;;;;;;5048810;28;20528;-40
2023/03/05 01:49:38;;;;;;;4.13;0.30;;;2.50;99.90;;;;;;5049312;28;20045;-40
2023/03/05 01:52:09;;;;;;;3.75;0.75;;;2.40;99.90;;;;;;5048801;28;20056;-39
2023/03/05 01:54:42;;;;;;;7.10;0.50;;;2.50;99.90;;;;;;5049156;28;20084;-40
2023/03/05 01:57:15;;;;;;;5.38;0.47;;;2.50;99.90;;;;;;5048427;28;20041;-39
2023/03/05 01:59:44;;;;;;;6.43;0.40;;;2.90;99.90;;;;;;5049181;28;20080;-39
2023/03/05 02:02:11;;;;;;;6.63;0.50;;;2.30;99.90;;;;;;5049106;28;20045;-39
2023/03/05 02:04:53;;;;;;;5.28;0.47;;;3.10;99.90;;;;;;5049384;28;20056;-39
2023/03/05 02:07:19;;;;;;;2.15;0.20;;;2.30;99.90;;;;;;5049338;28;20045;-40
2023/03/05 02:09:46;;;;;;;5.97;0.40;;;2.30;99.90;;;;;;5048557;28;20106;-40
2023/03/05 02:12:12;;;;;;;3.40;0.50;;;2.00;99.90;;;;;;5048268;28;20044;-39
2023/03/05 02:14:40;;;;;;;4.55;0.38;;;2.10;99.90;;;;;;5048632;28;20049;-40
2023/03/05 02:17:07;;;;;;;5.72;0.50;;;2.00;99.90;;;;;;5048285;28;20069;-40
2023/03/05 02:19:51;;;;;;;5.45;0.60;;;1.80;99.90;;;;;;5048359;28;20045;-39
2023/03/05 02:22:19;;;;;;;6.40;0.70;;;1.60;99.90;;;;;;5048131;28;20115;-40
2023/03/05 02:24:45;;;;;;;10.65;1.98;;;1.70;99.90;;;;;;5048771;28;20049;-39
2023/03/05 02:27:12;;;;;;;4.35;0.30;;;1.50;99.90;;;;;;5048312;28;20110;-39
2023/03/05 02:29:42;;;;;;;3.20;0.40;;;1.60;99.90;;;;;;5048279;28;20514;-40
2023/03/05 02:32:08;;;;;;;7.78;0.50;;;1.50;99.90;;;;;;5047911;28;20083;-40
2023/03/05 02:34:34;;;;;;;7.82;1.02;;;1.40;99.90;;;;;;5047923;28;20163;-40
2023/03/05 02:37:03;;;;;;;4.65;0.75;;;1.40;99.90;;;;;;5046888;28;20599;-39
2023/03/05 02:39:30;;;;;;;4.47;0.55;;;1.50;99.90;;;;;;5048201;28;20045;-40
2023/03/05 02:41:56;;;;;;;7.22;0.50;;;1.40;99.90;;;;;;5047766;28;20124;-39
2023/03/05 02:44:22;;;;;;;4.40;0.40;;;1.40;99.90;;;;;;5047835;28;20094;-39
2023/03/05 02:46:48;;;;;;;7.57;0.55;;;1.50;99.90;;;;;;5047987;28;20789;-39
2023/03/05 02:49:14;;;;;;;4.82;0.60;;;1.40;99.90;;;;;;5047239;28;20117;-39
2023/03/05 02:51:40;;;;;;;5.90;0.40;;;1.40;99.90;;;;;;5047260;28;20057;-39
2023/03/05 02:54:06;;;;;;;5.40;1.52;;;1.40;99.90;;;;;;5047624;28;20041;-39
2023/03/05 02:56:32;;;;;;;7.88;0.70;;;1.40;99.90;;;;;;5047270;28;20044;-39
2023/03/05 02:58:57;;;;;;;3.95;0.90;;;1.40;99.90;;;;;;5047738;28;20619;-39
2023/03/05 03:01:24;;;;;;;4.15;0.77;;;1.50;99.90;;;;;;5048026;28;20041;-39
2023/03/05 03:03:49;;;;;;;6.70;0.70;;;1.60;99.90;;;;;;5046499;28;20087;-39
2023/03/05 03:06:15;;;;;;;6.13;1.30;;;1.60;99.90;;;;;;5047721;28;20044;-39
2023/03/05 03:08:41;;;;;;;6.53;0.75;;;1.60;99.90;;;;;;5047006;28;20114;-40
2023/03/05 03:11:09;;;;;;;7.28;0.80;;;1.70;99.90;;;;;;5048426;28;20037;-39
2023/03/05 03:13:35;;;;;;;8.15;1.05;;;1.80;99.90;;;;;;5047570;28;20690;-39
2023/03/05 03:16:06;;;;;;;5.78;0.57;;;1.80;99.90;;;;;;5048022;28;20052;-39
2023/03/05 03:18:32;;;;;;;4.07;0.70;;;1.60;99.90;;;;;;5047369;28;20075;-39
2023/03/05 03:20:58;;;;;;;8.48;0.95;;;1.80;99.90;;;;;;5047673;28;20036;-40
2023/03/05 03:23:24;;;;;;;5.57;0.80;;;1.70;99.90;;;;;;5047070;28;20037;-42
2023/03/05 03:25:49;;;;;;;4.90;0.73;;;1.80;99.90;;;;;;5047232;28;20040;-39
2023/03/05 03:28:15;;;;;;;6.75;0.75;;;1.80;99.90;;;;;;5047107;28;20368;-40
2023/03/05 03:30:41;;;;;;;7.70;0.68;;;1.80;99.90;;;;;;5047050;28;20132;-40
2023/03/05 03:33:07;;;;;;;4.80;0.80;;;1.80;99.90;;;;;;5047050;28;20045;-39
2023/03/05 03:35:32;;;;;;;4.30;0.80;;;1.80;99.90;;;;;;5047184;28;20377;-39
2023/03/05 03:37:58;;;;;;;6.30;0.70;;;1.80;99.90;;;;;;5047111;28;20047;-39
2023/03/05 03:40:24;;;;;;;5.43;0.70;;;1.50;99.90;;;;;;5046807;28;20040;-39
2023/03/05 03:42:53;;;;;;;5.25;0.75;;;1.90;99.90;;;;;;5046821;28;20087;-39
2023/03/05 03:45:21;;;;;;;5.65;0.95;;;1.80;99.90;;;;;;5047190;28;20115;-39
2023/03/05 03:47:50;;;;;;;5.78;0.50;;;1.90;99.90;;;;;;5046930;28;20102;-39
2023/03/05 03:50:17;;;;;;;9.73;1.30;;;1.90;99.90;;;;;;5045817;28;20124;-40
2023/03/05 03:52:43;;;;;;;10.32;0.77;;;1.80;99.90;;;;;;5046827;28;20088;-39
2023/03/05 03:55:09;;;;;;;10.50;0.95;;;2.00;99.90;;;;;;5047329;28;20095;-39
2023/03/05 03:57:36;;;;;;;7.57;0.90;;;1.90;99.90;;;;;;5046866;28;20439;-40
2023/03/05 04:00:05;;;;;;;4.47;0.63;;;2.10;99.90;;;;;;5047510;28;20124;-40
2023/03/05 04:02:31;;;;;;;7.78;1.00;;;1.90;99.90;;;;;;5047257;28;20051;-39
2023/03/05 04:04:57;;;;;;;4.15;0.80;;;1.90;99.90;;;;;;5047135;28;20045;-39
2023/03/05 04:07:23;;;;;;;7.60;0.80;;;1.80;99.90;;;;;;5046771;28;20072;-39
2023/03/05 04:09:48;;;;;;;8.43;0.93;;;1.80;99.90;;;;;;5046818;28;20041;-40
2023/03/05 04:12:16;;;;;;;4.10;0.70;;;1.60;99.90;;;;;;5045958;28;20040;-39
2023/03/05 04:14:47;;;;;;;4.80;0.68;;;1.50;99.90;;;;;;5046862;28;20037;-39
2023/03/05 04:17:14;;;;;;;7.72;1.70;;;1.30;99.90;;;;;;5046448;28;20520;-40
2023/03/05 04:19:40;;;;;;;5.05;0.60;;;1.30;99.90;;;;;;5046296;28;20419;-39
2023/03/05 04:22:09;;;;;;;4.07;0.52;;;1.20;99.90;;;;;;5046487;28;20044;-39
2023/03/05 04:24:35;;;;;;;10.98;0.90;;;1.90;99.90;;;;;;5045736;28;20064;-39
2023/03/05 04:27:00;;;;;;;3.63;0.55;;;1.00;99.90;;;;;;5045877;28;20087;-40
2023/03/05 04:29:26;;;;;;;9.38;0.80;;;1.00;99.90;;;;;;5046323;28;20076;-40
2023/03/05 04:31:52;;;;;;;5.78;0.55;;;1.00;99.90;;;;;;5046086;28;20045;-39
2023/03/05 04:34:17;;;;;;;9.25;0.55;;;1.10;99.90;;;;;;5046248;28;20060;-39
2023/03/05 04:36:43;;;;;;;12.32;0.98;;;1.20;99.90;;;;;;5046002;28;20049;-40
2023/03/05 04:39:09;;;;;;;3.85;0.65;;;1.30;99.90;;;;;;5044680;28;20049;-39
2023/03/05 04:41:34;;;;;;;5.70;1.08;;;1.40;99.90;;;;;;5046217;28;20124;-39
2023/03/05 04:44:00;;;;;;;8.38;1.20;;;1.50;99.90;;;;;;5046222;28;20461;-39
2023/03/05 04:46:25;;;;;;;6.50;0.60;;;1.50;99.90;;;;;;5046369;28;20048;-39
2023/03/05 04:48:51;;;;;;;1.88;0.40;;;1.50;99.90;;;;;;5046257;28;20046;-39
2023/03/05 04:51:17;;;;;;;4.25;0.65;;;1.60;99.90;;;;;;5045855;28;20060;-40
2023/03/05 04:53:43;;;;;;;6.68;0.57;;;1.60;99.90;;;;;;5045469;28;20045;-39
2023/03/05 04:56:09;;;;;;;8.25;0.70;;;1.50;99.90;;;;;;5048258;28;20473;-39
2023/03/05 04:58:34;;;;;;;4.28;0.60;;;1.50;99.90;;;;;;5049347;28;20049;-39
2023/03/05 05:01:05;;;;;;;4.10;0.60;;;1.40;99.90;;;;;;5050086;28;20525;-40
2023/03/05 05:03:31;;;;;;;6.18;0.50;;;1.60;99.90;;;;;;5049906;28;20037;-40
2023/03/05 05:05:58;;;;;;;5.25;0.57;;;1.20;99.90;;;;;;5049375;28;20048;-39
2023/03/05 05:08:25;;;;;;;6.25;0.50;;;1.20;99.90;;;;;;5049936;28;20040;-40
2023/03/05 05:11:05;;;;;;;5.93;1.05;;;1.20;99.90;;;;;;5049395;28;20047;-39
2023/03/05 05:13:31;;;;;;;5.95;0.40;;;0.90;99.90;;;;;;5050156;28;20045;-39
2023/03/05 05:15:57;;;;;;;3.60;0.57;;;1.00;99.90;;;;;;5049613;28;20410;-39
2023/03/05 05:18:24;;;;;;;5.75;0.60;;;1.00;99.90;;;;;;5049792;28;20055;-40
2023/03/05 05:20:50;;;;;;;7.45;0.63;;;1.00;99.90;;;;;;5049493;28;20037;-39
2023/03/05 05:23:17;;;;;;;4.30;0.63;;;1.00;99.90;;;;;;5049900;28;20090;-40
2023/03/05 05:25:42;;;;;;;7.85;0.50;;;0.90;99.90;;;;;;5049328;28;20749;-39
2023/03/05 05:28:10;;;;;;;4.97;0.73;;;1.00;99.90;;;;;;5049737;28;20045;-40
2023/03/05 05:30:36;;;;;;;7.97;1.50;;;1.00;99.90;;;;;;5049819;28;20130;-40
2023/03/05 05:33:01;;;;;;;4.55;0.80;;;1.10;99.90;;;;;;5048137;28;20065;-39
2023/03/05 05:35:27;;;;;;;3.15;0.30;;;1.10;99.90;;;;;;5050114;28;20136;-39
2023/03/05 05:37:53;;;;;;;7.75;0.80;;;1.20;99.90;;;;;;5049911;28;20045;-39
2023/03/05 05:40:19;;;;;;;6.72;0.70;;;1.40;99.90;;;;;;5049944;28;20047;-39
2023/03/05 05:42:45;;;;;;;9.77;0.70;;;1.40;99.90;;;;;;5049878;28;20045;-40
2023/03/05 05:45:11;;;;;;;5.30;0.70;;;1.40;99.90;;;;;;5049683;28;20562;-40
2023/03/05 05:47:37;;;;;;;5.68;0.40;;;1.40;99.90;;;;;;5049369;28;20037;-39
2023/03/05 05:50:04;;;;;;;8.07;0.80;;;1.50;99.90;;;;;;5049296;28;20037;-39
2023/03/05 05:52:30;;;;;;;5.50;0.57;;;1.20;99.90;;;;;;5049091;28;20279;-39
2023/03/05 05:54:55;;;;;;;8.10;0.70;;;1.30;99.90;;;;;;5049177;28;20033;-39
2023/03/05 05:57:21;;;;;;;7.22;0.70;;;1.40;99.90;;;;;;5049090;28;20425;-40
2023/03/05 05:59:47;;;;;;;5.78;0.50;;;1.40;99.90;;;;;;5048654;28;20044;-39
2023/03/05 06:02:12;;;;;;;4.45;0.70;;;1.70;99.90;;;;;;5048965;28;20103;-40
2023/03/05 06:04:39;;;;;;;7.43;0.45;;;1.70;99.90;;;;;;5049221;28;20469;-39
2023/03/05 06:07:05;;;;;;;2.90;0.77;;;1.60;99.90;;;;;;5048520;28;20329;-39
2023/03/05 06:09:31;;;;;;;5.65;0.43;;;1.60;99.90;;;;;;5049061;28;20053;-39
2023/03/05 06:11:56;;;;;;;3.47;0.30;;;1.70;99.90;;;;;;5048645;28;20360;-39
2023/03/05 06:14:22;;;;;;;2.50;0.20;;;1.70;99.90;;;;;;5049135;28;20045;-39
2023/03/05 06:16:48;;;;;;;4.20;0.25;;;1.70;99.90;;;;;;5048651;28;20371;-39
2023/03/05 06:19:15;;;;;;;3.80;0.43;;;1.60;99.90;;;;;;5048999;28;20052;-39
2023/03/05 06:21:42;;;;;;;1.13;0.20;;;1.50;99.90;;;;;;5048757;28;20367;-40
2023/03/05 06:24:09;;;;;;;4.15;0.20;;;1.40;99.90;;;;;;5048223;28;20044;-40
2023/03/05 06:26:35;;;;;;;2.30;0.20;;;1.40;99.90;;;;;;5047284;28;20097;-40
2023/03/05 06:29:01;;;;;;;5.85;0.20;;;1.20;99.90;;;;;;5048337;28;20036;-40
2023/03/05 06:31:27;;;;;;;1.13;0.10;;;1.20;99.90;;;;;;5048366;28;20040;-39
2023/03/05 06:33:55;;;;;;;3.75;0.10;;;1.00;99.90;;;;;;5048077;28;20048;-39
2023/03/05 06:36:23;;;;;;;2.92;0.20;;;1.00;99.90;;;;;;5048369;28;20124;-39
2023/03/05 06:38:49;;;;;;;2.92;0.20;;;1.00;99.90;;;;;;5048243;28;20045;-40
2023/03/05 06:41:19;;;;;;;2.15;0.25;;;0.90;99.90;;;;;;5048638;28;20056;-40
2023/03/05 06:43:46;;;;;;;2.92;0.10;;;1.50;99.90;;;;;;5048132;28;20049;-40
2023/03/05 06:46:20;;;;;;;0.63;0.10;;;1.10;99.90;;;;;;5048244;28;20060;-39
2023/03/05 06:48:47;;;;;;;0.88;0.10;;;0.70;99.90;;;;;;5048082;28;20045;-40
2023/03/05 06:51:15;;;;;;;1.42;0.20;;;0.90;99.90;;;;;;5046477;28;20053;-40
2023/03/05 06:53:42;;;;;;;4.00;0.30;;;0.90;99.90;;;;;;5048434;28;20394;-39
2023/03/05 06:56:09;;;;;;;2.72;0.20;;;1.40;99.90;;;;;;5047897;28;20060;-39
2023/03/05 06:58:34;;;;;;;5.80;0.30;;;1.00;99.90;;;;;;5047640;28;20040;-40
2023/03/05 07:01:03;;;;;;;2.67;0.30;;;1.00;99.90;;;;;;5047770;28;20573;-40
2023/03/05 07:03:29;;;;;;;1.02;0.22;;;1.10;99.90;;;;;;5047471;28;20084;-40
2023/03/05 07:05:54;;;;;;;3.33;0.60;;;1.20;99.90;;;;;;5046879;28;20407;-39
2023/03/05 07:08:20;;;;;;;2.03;0.20;;;1.40;99.90;;;;;;5045626;28;20505;-40
2023/03/05 07:10:46;;;;;;;1.95;0.60;;;1.30;99.90;;;;;;5046973;28;20120;-40
2023/03/05 07:13:11;;;;;;;5.05;0.40;;;1.40;99.90;;;;;;5047241;28;20032;-39
2023/03/05 07:15:38;;;;;;;2.78;0.40;;;1.40;99.90;;;;;;5047394;28;20033;-39
2023/03/05 07:18:04;;;;;;;6.82;0.50;;;1.60;99.90;;;;;;5046558;28;20447;-39
2023/03/05 07:20:32;;;;;;;5.13;0.50;;;1.40;99.90;;;;;;5047912;28;20040;-39
2023/03/05 07:22:58;;;;;;;3.88;0.40;;;1.90;99.90;;;;;;5047157;28;20049;-39
2023/03/05 07:25:23;;;;;;;4.35;0.77;;;2.00;99.90;;;;;;5046972;28;20464;-39
2023/03/05 07:27:49;;;;;;;5.07;0.55;;;2.20;99.90;;;;;;5047066;28;20040;-39
2023/03/05 07:30:15;;;;;;;7.22;0.75;;;2.30;99.90;;;;;;5047160;28;20394;-40
2023/03/05 07:32:41;;;;;;;3.72;0.88;;;3.40;99.90;;;;;;5047574;28;20037;-39
2023/03/05 07:35:07;;;;;;;2.45;0.43;;;2.40;99.90;;;;;;5047330;28;20376;-40
2023/03/05 07:37:33;;;;;;;4.85;0.40;;;2.40;99.90;;;;;;5047168;28;20051;-40
2023/03/05 07:39:59;;;;;;;6.20;1.10;;;2.60;99.90;;;;;;5047108;28;20433;-39
2023/03/05 07:42:25;;;;;;;5.30;0.45;;;2.80;99.90;;;;;;5046934;28;20045;-39
2023/03/05 07:44:51;;;;;;;5.15;0.60;;;2.70;99.90;;;;;;5046802;28;20126;-39
2023/03/05 07:47:16;;;;;;;5.70;0.73;;;2.80;99.90;;;;;;5046484;28;20077;-40
2023/03/05 07:49:42;;;;;;;5.68;0.73;;;2.80;99.90;;;;;;5047133;28;20679;-40
2023/03/05 07:52:08;;;;;;;4.43;0.75;;;3.00;99.90;;;;;;5046382;28;20075;-40
2023/03/05 07:54:36;;;;;;;5.38;0.32;;;3.20;99.90;;;;;;5046571;28;20072;-40
2023/03/05 07:57:07;;;;;;;5.82;0.85;;;3.30;99.90;;;;;;5046605;28;20051;-40
2023/03/05 07:59:33;;;;;;;6.60;0.50;;;3.50;99.90;;;;;;5046588;28;20048;-40
2023/03/05 08:01:59;;;;;;;6.50;0.60;;;3.50;99.90;;;;;;5046574;28;20462;-40
2023/03/05 08:04:25;;;;;;;5.85;0.95;;;4.30;99.90;;;;;;5045720;28;20084;-40
2023/03/05 08:06:51;;;;;;;6.00;0.30;;;4.00;99.90;;;;;;5046347;28;20040;-40
2023/03/05 08:09:18;;;;;;;3.90;0.73;;;4.40;99.90;;;;;;5046210;28;20045;-40
2023/03/05 08:11:44;;;;;;;6.57;0.50;;;4.30;99.90;;;;;;5046478;28;20094;-40
2023/03/05 08:14:11;;;;;;;7.40;0.95;;;4.40;99.90;;;;;;5046275;28;20044;-40
2023/03/05 08:16:38;;;;;;;3.70;0.63;;;4.60;99.90;;;;;;5045045;28;20076;-40
2023/03/05 08:19:04;;;;;;;4.30;0.40;;;4.80;99.90;;;;;;5045001;28;20471;-40
2023/03/05 08:21:34;;;;;;;6.55;0.30;;;4.80;99.90;;;;;;5046753;28;20044;-40
2023/03/05 08:24:11;;;;;;;5.20;0.45;;;4.70;99.90;;;;;;5046365;28;20053;-40
2023/03/05 08:26:38;;;;;;;7.75;0.45;;;4.80;99.90;;;;;;5028334;28;20055;-40
2023/03/05 08:29:04;;;;;;;5.40;0.50;;;4.90;99.90;;;;;;5046059;28;20045;-40
2023/03/05 08:31:31;;;;;;;4.78;0.40;;;4.40;99.90;;;;;;5046056;28;20124;-40
2023/03/05 08:33:59;;;;;;;5.57;0.40;;;5.00;99.90;;;;;;5046233;28;20041;-40
2023/03/05 08:36:24;;;;;;;6.47;0.90;;;5.10;99.90;;;;;;5046457;28;20044;-40
2023/03/05 08:38:50;;;;;;;5.70;0.30;;;6.00;99.90;;;;;;5046171;28;20628;-40
2023/03/05 08:41:18;;;;;;;5.80;0.40;;;5.10;99.90;;;;;;5046061;28;20040;-40
2023/03/05 08:43:43;;;;;;;5.10;0.40;;;6.30;99.90;;;;;;5046527;28;20049;-40
2023/03/05 08:46:13;;;;;;;3.55;0.38;;;5.10;99.90;;;;;;5046271;28;20044;-40
2023/03/05 08:48:39;;;;;;;7.45;0.30;;;5.10;99.90;;;;;;5046443;28;20041;-40
2023/03/05 08:51:11;;;;;;;4.18;0.40;;;5.20;99.90;;;;;;5045916;28;20131;-40
2023/03/05 08:53:38;;;;;;;9.05;0.50;;;5.60;99.90;;;;;;5044596;28;20063;-40
2023/03/05 08:56:04;;;;;;;3.92;0.60;;;5.50;99.90;;;;;;5046110;28;20091;-40
2023/03/05 08:58:31;;;;;;;6.85;0.60;;;5.60;99.90;;;;;;5045511;28;20483;-40
2023/03/05 09:00:56;;;;;;;5.78;0.45;;;5.70;99.90;;;;;;5045852;28;20044;-40
2023/03/05 09:03:22;;;;;;;4.80;0.38;;;5.60;99.90;;;;;;5044144;28;20882;-40
2023/03/05 09:05:48;;;;;;;6.90;2.17;;;6.20;99.90;;;;;;5045940;28;20148;-40
2023/03/05 09:08:14;;;;;;;7.78;0.38;;;5.80;99.90;;;;;;5045764;28;20479;-40
2023/03/05 09:10:43;;;;;;;8.40;0.40;;;6.30;99.90;;;;;;5045991;28;20521;-40
2023/03/05 09:13:09;;;;;;;8.05;0.60;;;7.40;99.90;;;;;;5045896;28;20052;-40
2023/03/05 09:15:36;;;;;;;4.82;0.30;;;6.30;99.90;;;;;;5045535;28;20033;-40
2023/03/05 09:18:02;;;;;;;4.93;0.30;;;6.40;99.90;;;;;;5045781;28;20028;-40
2023/03/05 09:20:27;;;;;;;5.47;0.40;;;6.50;99.90;;;;;;5045180;28;20086;-40
2023/03/05 09:22:54;;;;;;;8.25;0.40;;;7.20;99.90;;;;;;5045080;28;20060;-40
2023/03/05 09:25:20;;;;;;;4.32;0.50;;;7.20;99.90;;;;;;5045619;28;20041;-40
2023/03/05 09:27:45;;;;;;;6.28;0.30;;;7.20;99.90;;;;;;5045160;28;20478;-41
2023/03/05 09:30:13;;;;;;;5.97;0.52;;;7.80;99.90;;;;;;5044845;28;20048;-41
2023/03/05 09:32:38;;;;;;;7.85;2.05;;;7.80;99.90;;;;;;5044845;28;20053;-40
2023/03/05 09:35:05;;;;;;;5.50;0.30;;;8.30;99.90;;;;;;5044702;28;20056;-40
2023/03/05 09:37:31;;;;;;;5.53;0.28;;;7.70;99.90;;;;;;5044825;28;20101;-40
2023/03/05 09:39:57;;;;;;;6.88;0.82;;;8.10;99.90;;;;;;5044751;28;20045;-40
2023/03/05 09:42:32;;;;;;;6.68;0.75;;;8.00;99.90;;;;;;5047527;28;20549;-40
2023/03/05 09:45:08;;;;;;;5.50;0.30;;;9.50;99.90;;;;;;5049031;28;20044;-40
2023/03/05 09:47:51;;;;;;;5.13;0.40;;;8.30;99.90;;;;;;5048702;28;20221;-40
2023/03/05 09:50:35;;;;;;;6.20;0.52;;;7.80;99.90;;;;;;5047962;28;20045;-40
2023/03/05 09:53:28;;;;;;;7.03;0.50;;;8.80;99.90;;;;;;5047968;28;20047;-40
2023/03/05 09:55:57;;;;;;;3.67;0.20;;;8.60;99.90;;;;;;5047991;28;20037;-41
2023/03/05 09:58:35;;;;;;;4.57;0.40;;;8.80;99.90;;;;;;5047731;28;20072;-41
2023/03/05 10:01:27;;;;;;;4.15;0.45;;;9.10;99.90;;;;;;5048316;28;20052;-40
2023/03/05 10:04:02;;;;;;;6.93;0.32;;;9.10;99.90;;;;;;5049032;28;20041;-40
2023/03/05 10:06:30;;;;;;;3.97;0.38;;;8.90;99.90;;;;;;5048859;28;20053;-40
2023/03/05 10:09:02;;;;;;;2.97;0.57;;;8.90;99.90;;;;;;5048749;28;20047;-40
2023/03/05 10:11:49;;;;;;;2.60;0.40;;;8.50;99.90;;;;;;5048380;28;20106;-40
2023/03/05 10:14:38;;;;;;;5.10;0.10;;;7.50;99.90;;;;;;5048000;28;20040;-40
2023/03/05 10:17:29;;;;;;;0.88;0.10;;;7.10;99.90;;;;;;5047048;28;20045;-40
2023/03/05 10:20:26;;;;;;;1.00;0.00;;;6.80;99.90;;;;;;5048716;28;20594;-40
2023/03/05 10:23:10;;;;;;;2.67;0.10;;;6.60;99.90;;;;;;5048142;28;20040;-40
2023/03/05 10:26:04;;;;;;;1.10;0.10;;;6.50;99.90;;;;;;5048434;28;20040;-40
2023/03/05 10:29:03;;;;;;;1.65;0.00;;;6.80;99.90;;;;;;5037748;28;20096;-40
2023/03/05 10:32:05;;;;;;;1.73;0.10;;;7.20;99.90;;;;;;5038800;28;20063;-40
2023/03/05 10:35:03;;;;;;;2.55;0.10;;;7.40;99.90;;;;;;5046532;28;20069;-40
2023/03/05 10:38:00;;;;;;;0.95;0.10;;;7.50;99.90;;;;;;5047148;28;20045;-40
2023/03/05 10:40:42;;;;;;;2.95;0.10;;;7.60;99.90;;;;;;5046986;28;20041;-40
2023/03/05 10:43:20;;;;;;;3.30;0.30;;;7.60;99.90;;;;;;5047110;28;20049;-40
2023/03/05 10:45:48;;;;;;;2.88;0.10;;;7.80;99.90;;;;;;5046886;28;20103;-41
2023/03/05 10:48:20;;;;;;;0.73;0.10;;;8.00;99.90;;;;;;5047231;28;20040;-40
2023/03/05 10:50:50;;;;;;;3.28;0.10;;;8.40;99.90;;;;;;5046339;28;20102;-41
2023/03/05 10:53:27;;;;;;;4.82;0.35;;;8.60;99.90;;;;;;5046146;28;20132;-40
2023/03/05 10:55:55;;;;;;;3.30;0.10;;;8.80;99.90;;;;;;5046957;28;20091;-40
2023/03/05 10:58:22;;;;;;;2.80;0.30;;;8.10;99.90;;;;;;5046572;28;20060;-40
2023/03/05 11:01:05;;;;;;;3.55;0.17;;;7.90;99.90;;;;;;5046586;28;20090;-40
2023/03/05 11:03:49;;;;;;;2.33;0.10;;;7.70;99.90;;;;;;5046065;28;20120;-40
2023/03/05 11:06:26;;;;;;;3.58;0.30;;;7.50;99.90;;;;;;5046109;28;20136;-40
2023/03/05 11:08:52;;;;;;;4.68;0.50;;;7.10;99.90;;;;;;5046281;28;20413;-40
2023/03/05 11:11:20;;;;;;;4.70;0.20;;;8.00;99.90;;;;;;5046639;28;20053;-40
2023/03/05 11:13:51;;;;;;;1.20;0.13;;;8.10;99.90;;;;;;5045986;28;20048;-40
2023/03/05 11:16:44;;;;;;;4.40;0.13;;;7.30;99.90;;;;;;5046717;28;20040;-40
2023/03/05 11:19:16;;;;;;;2.03;0.28;;;7.50;99.90;;;;;;5046658;28;20461;-40
2023/03/05 11:21:43;;;;;;;4.82;0.28;;;7.70;99.90;;;;;;5046548;28;20665;-40
2023/03/05 11:24:17;;;;;;;4.50;0.20;;;7.90;99.90;;;;;;5045364;28;20201;-40
2023/03/05 11:26:48;;;;;;;2.70;0.20;;;8.30;99.90;;;;;;5045925;28;20055;-41
2023/03/05 11:29:21;;;;;;;3.80;0.30;;;8.40;99.90;;;;;;5045711;28;20033;-41
2023/03/05 11:31:48;;;;;;;1.73;0.30;;;8.50;99.90;;;;;;5045725;28;20087;-40
2023/03/05 11:34:16;;;;;;;2.05;0.20;;;8.60;99.90;;;;;;5046333;28;20045;-41
2023/03/05 11:37:05;;;;;;;4.65;0.20;;;8.60;99.90;;;;;;5046115;28;20040;-40
2023/03/05 11:39:34;;;;;;;4.10;0.20;;;8.60;99.90;;;;;;5044609;28;20114;-40
2023/03/05 11:42:13;;;;;;;3.95;0.45;;;8.70;99.90;;;;;;5045721;28;20120;-41
2023/03/05 11:44:45;;;;;;;5.45;0.20;;;8.80;99.90;;;;;;5045635;28;20041;-40
2023/03/05 11:47:31;;;;;;;5.80;0.63;;;9.50;99.90;;;;;;5045630;28;20745;-40
2023/03/05 11:50:15;;;;;;;5.57;0.43;;;8.60;99.90;;;;;;5041414;28;20041;-40
2023/03/05 11:53:10;;;;;;;2.97;0.20;;;8.70;99.90;;;;;;5044989;28;20072;-40
2023/03/05 11:55:53;;;;;;;1.20;0.10;;;8.30;99.90;;;;;;5046071;28;20182;-40
2023/03/05 11:58:40;;;;;;;4.60;0.20;;;8.20;99.90;;;;;;5046384;28;20390;-41
2023/03/05 12:01:20;;;;;;;4.15;0.20;;;8.10;99.90;;;;;;5045585;28;20174;-40
2023/03/05 12:03:46;;;;;;;1.15;0.10;;;7.90;99.90;;;;;;5043272;28;20045;-40
2023/03/05 12:06:18;;;;;;;1.77;0.20;;;8.40;99.90;;;;;;5045127;28;20087;-40
2023/03/05 12:08:48;;;;;;;5.80;0.47;;;7.70;99.90;;;;;;5045148;28;20483;-40
2023/03/05 12:11:29;;;;;;;5.13;0.10;;;7.80;99.90;;;;;;5044016;28;20370;-40
2023/03/05 12:14:04;;;;;;;4.20;0.10;;;7.50;99.90;;;;;;5045541;28;20033;-40
2023/03/05 12:16:45;;;;;;;6.53;0.30;;;7.40;99.90;;;;;;5045217;28;20033;-40
2023/03/05 12:19:44;;;;;;;3.38;0.10;;;7.30;99.90;;;;;;5045519;28;20049;-41
2023/03/05 12:22:18;;;;;;;3.00;0.20;;;7.30;99.90;;;;;;5045657;28;20059;-40
2023/03/05 12:24:43;;;;;;;3.22;0.10;;;7.30;99.90;;;;;;5044731;28;20473;-40
2023/03/05 12:27:14;;;;;;;1.95;0.22;;;7.50;99.90;;;;;;5045410;28;20043;-40
2023/03/05 12:29:40;;;;;;;4.18;0.30;;;7.80;99.90;;;;;;5045485;28;20377;-41
2023/03/05 12:32:33;;;;;;;4.50;0.10;;;7.80;99.90;;;;;;5044903;28;20041;-41
2023/03/05 12:35:23;;;;;;;2.38;0.10;;;7.90;99.90;;;;;;5044831;28;20068;-40
2023/03/05 12:37:49;;;;;;;2.67;0.10;;;8.20;99.90;;;;;;5044695;28;20053;-38
2023/03/05 12:40:14;;;;;;;4.35;0.65;;;8.00;99.90;;;;;;5044512;28;20088;-40
2023/03/05 12:42:54;;;;;;;5.40;0.20;;;8.20;99.90;;;;;;5044579;28;20044;-41
2023/03/05 12:45:31;;;;;;;3.15;0.17;;;8.10;99.90;;;;;;5043995;28;20041;-41
2023/03/05 12:47:57;;;;;;;0.90;0.25;;;8.10;99.90;;;;;;5043709;28;20129;-40
2023/03/05 12:50:28;;;;;;;3.85;0.10;;;8.20;99.90;;;;;;5044380;28;20131;-41
2023/03/05 12:53:17;;;;;;;3.83;0.10;;;8.20;99.90;;;;;;5044092;28;20068;-40
2023/03/05 12:55:45;;;;;;;2.42;0.38;;;8.30;99.90;;;;;;5043673;28;20283;-40
2023/03/05 12:58:11;;;;;;;6.03;0.43;;;8.30;99.90;;;;;;5044272;28;20048;-40
2023/03/05 13:00:43;;;;;;;2.42;0.10;;;8.30;99.90;;;;;;5044423;28;20037;-40
2023/03/05 13:03:16;;;;;;;;;;;8.20;99.90;;;;;;5042900;28;20056;-40
2023/03/05 13:05:52;;;;;;;4.63;0.20;;;8.10;99.90;;;;;;5044194;28;19920;-40
2023/03/05 13:08:36;;;;;;;6.15;0.40;;;8.10;99.90;;;;;;5025772;28;20037;-40
2023/03/05 13:11:17;;;;;;;2.10;0.10;;;8.00;99.90;;;;;;5044082;28;20654;-40